BHL weather

Bahía de los Ángeles Airport
Bahía de los Ángeles, Baja California, Mexico

Public forecast

Using degrees Celsius for public forecast. Weather courtesy of forecast.io.

METAR (pilot weather report)

Closest report is General Ignacio P. Garcia International Airport, 132.1 nm (244.7 km) E. Retrieved 2019/03/21 22:40 UTC (57 minutes ago):

MMHO 212240Z 23013KT 10SM OVC200 30/M07 A2996 RMK 8/007 BINOVC

TAF (pilot weather forecast)

Closest forecast is General Ignacio P. Garcia International Airport, 132.1 nm (244.7 km) E. Retrieved 2019/03/21 18:00 UTC (6 hours ago):

TAF MMHO 211655Z 2118/2218 20012KT P6SM BKN200 FM220300 12005KT P6SM BKN200